5 day graph

You are here

Error message

  • Notice: Trying to access array offset on value of type int in DrupalRequestSanitizer::stripDangerousValues() (line 102 of /home/twolittl/public_html/cms/includes/request-sanitizer.inc).
  • Notice: Trying to access array offset on value of type int in DrupalRequestSanitizer::stripDangerousValues() (line 102 of /home/twolittl/public_html/cms/includes/request-sanitizer.inc).
  • Notice: Trying to access array offset on value of type int in DrupalRequestSanitizer::stripDangerousValues() (line 102 of /home/twolittl/public_html/cms/includes/request-sanitizer.inc).
  • Notice: Trying to access array offset on value of type int in DrupalRequestSanitizer::stripDangerousValues() (line 102 of /home/twolittl/public_html/cms/includes/request-sanitizer.inc).
  • Notice: Trying to access array offset on value of type int in DrupalRequestSanitizer::stripDangerousValues() (line 102 of /home/twolittl/public_html/cms/includes/request-sanitizer.inc).
  • Notice: Trying to access array offset on value of type int in DrupalRequestSanitizer::stripDangerousValues() (line 102 of /home/twolittl/public_html/cms/includes/request-sanitizer.inc).
  • Notice: Trying to access array offset on value of type int in DrupalRequestSanitizer::stripDangerousValues() (line 102 of /home/twolittl/public_html/cms/includes/request-sanitizer.inc).
  • Notice: Trying to access array offset on value of type int in DrupalRequestSanitizer::stripDangerousValues() (line 102 of /home/twolittl/public_html/cms/includes/request-sanitizer.inc).
  • Notice: Trying to access array offset on value of type int in DrupalRequestSanitizer::stripDangerousValues() (line 102 of /home/twolittl/public_html/cms/includes/request-sanitizer.inc).
  • Notice: Trying to access array offset on value of type int in DrupalRequestSanitizer::stripDangerousValues() (line 102 of /home/twolittl/public_html/cms/includes/request-sanitizer.inc).
  • Deprecated function: Function get_magic_quotes_gpc() is deprecated in phpMyEdit->get_cgi_var() (line 1773 of /home/twolittl/public_html/phpMyEdit.class.php).
  • Deprecated function: implode(): Passing glue string after array is deprecated. Swap the parameters in drupal_get_feeds() (line 394 of /home/twolittl/public_html/cms/includes/common.inc).

Hive Data

Page: 1 of 16645  Records: 998690

Row Date Time Hive Temp Hive Humidity Outside Temp Outside Humidity Bottom Board Temp Outside Wall Temp Electronics Temp Light Levels inHG Fan Heat Cover Notes
Clear Sorted By: Outside Humidity descending, Row ascending, Date Time (sql) ascending, Outside Wall Temp ascending
View 255448 Nov 21 2014 7:06:04pm 62.42 66 47.66 99 48.65 47.3 62.6 212 28.64 0 0 0 NA
View 255449 Nov 21 2014 7:07:05pm 62.24 64 47.84 99 48.65 47.75 62.6 225 28.64 0 0 0 NA
View 255450 Nov 21 2014 7:08:05pm 62.24 66 48.38 99 48.65 47.75 62.6 299 28.64 0 0 0 NA
View 255451 Nov 21 2014 7:09:07pm 62.06 62 48.56 99 48.65 48.2 62.6 332 28.65 0 0 0 NA
View 255452 Nov 21 2014 7:10:08pm 62.06 68 48.74 99 48.65 48.2 62.6 341 28.65 0 0 0 NA
View 259858 Nov 24 2014 9:52:12pm 60.08 73 47.66 99 47.75 47.3 62.6 976 29.38 0 0 0 NA
View 259859 Nov 24 2014 9:53:11pm 60.08 75 48.02 99 47.75 47.3 62.6 974 29.37 0 0 0 NA
View 259860 Nov 24 2014 9:54:13pm 60.08 75 48.38 99 47.75 47.3 62.6 972 29.37 0 0 0 NA
View 260810 Nov 25 2014 1:59:54pm 66.02 72 53.6 99 54.95 53.15 69.8 955 29.46 0 0 0 NA
View 260811 Nov 25 2014 2:00:55pm 65.84 75 53.78 99 54.95 53.15 69.8 955 29.46 0 0 0 NA
View 260812 Nov 25 2014 2:01:57pm 65.84 68 53.96 99 54.95 53.6 69.8 955 29.46 0 0 0 NA
View 260813 Nov 25 2014 2:02:58pm 66.02 69 53.96 99 54.95 53.6 69.8 955 29.46 0 0 0 NA
View 260814 Nov 25 2014 2:03:59pm 65.84 68 54.14 99 54.95 53.6 69.8 955 29.46 0 0 0 NA
View 260815 Nov 25 2014 2:04:59pm 65.84 66 54.32 99 54.95 53.6 69.8 955 29.46 0 0 0 NA
View 260816 Nov 25 2014 2:06:00pm 65.84 64 54.5 99 54.95 53.6 69.8 953 29.46 0 0 0 NA
View 260817 Nov 25 2014 2:07:02pm 65.84 68 54.68 99 54.95 54.05 69.8 953 29.45 0 0 0 NA
View 260818 Nov 25 2014 2:08:03pm 65.66 70 54.68 99 54.95 54.05 69.8 952 29.46 0 0 0 NA
View 260819 Nov 25 2014 2:09:03pm 65.66 70 54.86 99 54.95 54.05 69.8 952 29.46 0 0 0 NA
View 260820 Nov 25 2014 2:10:04pm 65.66 67 54.86 99 54.95 54.05 69.8 953 29.46 0 0 0 NA
View 260821 Nov 25 2014 2:11:06pm 65.66 66 55.04 99 54.95 54.5 69.8 952 29.46 0 0 0 NA
View 260822 Nov 25 2014 2:12:07pm 65.84 75 55.04 99 54.95 54.5 69.8 952 29.46 0 0 0 NA
View 260823 Nov 25 2014 2:13:07pm 65.84 75 55.22 99 54.95 54.5 69.8 950 29.46 0 0 0 NA
View 294178 Dec 20 2014 5:19:06pm 62.78 61 47.84 99 48.2 47.75 60.8 250 28.78 0 0 0 NA
View 294179 Dec 20 2014 5:20:06pm 62.6 58 48.2 99 48.2 47.75 60.8 250 28.78 0 0 0 NA
View 294180 Dec 20 2014 5:21:07pm 62.6 60 48.56 99 48.2 48.2 60.8 250 28.79 0 0 0 NA
View 294181 Dec 20 2014 5:22:07pm 62.42 59 48.92 99 48.2 48.2 60.8 249 28.78 0 0 0 NA
View 294182 Dec 20 2014 5:23:08pm 62.42 57 49.28 99 48.2 48.2 60.8 249 28.78 0 0 0 NA
View 294183 Dec 20 2014 5:24:08pm 62.42 58 49.64 99 48.2 48.2 60.8 249 28.78 0 0 0 NA
View 294184 Dec 20 2014 5:25:09pm 62.24 59 49.82 99 48.2 48.2 60.8 249 28.78 0 0 0 NA
View 309167 Jan 2 2015 3:45:07pm 56.48 62 37.22 99 37.85 38.75 50 271 29.36 0 0 0 NA
View 309168 Jan 2 2015 3:46:07pm 56.48 59 37.4 99 37.85 38.75 51.8 272 29.36 0 0 0 NA
View 309169 Jan 2 2015 3:47:07pm 56.48 65 37.58 99 37.85 38.75 50 273 29.36 0 0 0 NA
View 310159 Jan 3 2015 8:22:37am 56.3 64 32.36 99 36.5 33.8 48.2 277 29.54 0 0 0 NA
View 310160 Jan 3 2015 8:23:37am 56.3 65 32.36 99 36.5 33.8 48.2 277 29.54 0 0 0 NA
View 310161 Jan 3 2015 8:24:38am 56.3 68 32.36 99 36.5 33.8 48.2 277 29.54 0 0 0 NA
View 310162 Jan 3 2015 8:25:38am 56.3 66 32.54 99 36.5 33.8 48.2 277 29.54 0 0 0 NA
View 310163 Jan 3 2015 8:26:38am 56.3 66 32.54 99 36.5 33.8 48.2 277 29.54 0 0 0 NA
View 310164 Jan 3 2015 8:27:39am 56.3 64 32.54 99 36.5 33.8 48.2 277 29.54 0 0 0 NA
View 310165 Jan 3 2015 8:28:39am 56.3 63 32.54 99 36.5 33.8 48.2 277 29.54 0 0 0 NA
View 310166 Jan 3 2015 8:29:39am 56.3 63 32.54 99 36.5 33.8 48.2 277 29.55 0 0 0 NA
View 310167 Jan 3 2015 8:30:40am 56.3 66 32.54 99 36.5 33.8 48.2 277 29.54 0 0 0 NA
View 310168 Jan 3 2015 8:31:40am 56.3 67 32.54 99 36.5 33.8 48.2 277 29.54 0 0 0 NA
View 310169 Jan 3 2015 8:32:40am 56.3 67 32.54 99 36.5 33.8 48.2 277 29.54 0 0 0 NA
View 310170 Jan 3 2015 8:33:41am 56.3 68 32.54 99 36.5 33.8 48.2 277 29.54 0 0 0 NA
View 310171 Jan 3 2015 8:34:41am 56.3 69 32.54 99 36.5 34.25 48.2 277 29.54 0 0 0 NA
View 310172 Jan 3 2015 8:35:41am 56.3 69 32.54 99 36.5 33.8 48.2 277 29.54 0 0 0 NA
View 310173 Jan 3 2015 8:36:42am 56.3 69 32.54 99 36.5 34.25 48.2 277 29.54 0 0 0 NA
View 310174 Jan 3 2015 8:37:42am 56.3 70 32.54 99 36.5 34.25 48.2 277 29.54 0 0 0 NA
View 310175 Jan 3 2015 8:38:42am 56.48 71 32.72 99 36.5 34.25 48.2 277 29.54 0 0 0 NA
View 310176 Jan 3 2015 8:39:43am 56.48 67 32.72 99 36.5 34.25 48.2 277 29.54 0 0 0 NA
View 310177 Jan 3 2015 8:40:43am 56.48 68 32.54 99 36.5 34.25 48.2 277 29.54 0 0 0 NA
View 310178 Jan 3 2015 8:41:43am 56.48 66 32.54 99 36.5 34.25 48.2 277 29.54 0 0 0 NA
View 310179 Jan 3 2015 8:42:44am 56.48 66 32.72 99 36.5 34.25 48.2 277 29.54 0 0 0 NA
View 310180 Jan 3 2015 8:43:44am 56.3 66 32.72 99 36.5 34.25 48.2 277 29.54 0 0 0 NA
View 310181 Jan 3 2015 8:44:44am 56.48 65 32.72 99 36.5 34.25 48.2 277 29.54 0 0 0 NA
View 310182 Jan 3 2015 8:45:45am 56.3 64 32.72 99 36.05 34.25 48.2 277 29.54 0 0 0 NA
View 310183 Jan 3 2015 8:46:45am 56.3 63 32.72 99 36.5 34.25 48.2 277 29.54 0 0 0 NA
View 310184 Jan 3 2015 8:47:45am 56.3 64 32.72 99 36.05 34.25 48.2 277 29.54 0 0 0 NA
View 310185 Jan 3 2015 8:48:45am 56.3 66 32.72 99 36.05 34.25 48.2 277 29.54 0 0 0 NA
View 310186 Jan 3 2015 8:49:46am 56.3 66 32.72 99 36.05 34.25 48.2 277 29.55 0 0 0 NA